createdAt,value
2017-05-15T00:00:06.025Z,990.6
2017-05-15T00:01:08.345Z,990.6
2017-05-15T00:02:10.666Z,990.6
2017-05-15T00:03:13.022Z,990.6
2017-05-15T00:04:15.357Z,990.6
2017-05-15T00:05:17.697Z,990.7
2017-05-15T00:06:20.021Z,990.6
2017-05-15T00:07:22.397Z,990.6
2017-05-15T00:08:24.717Z,990.6
2017-05-15T00:09:27.058Z,990.6
2017-05-15T00:10:29.461Z,990.7
2017-05-15T00:11:31.768Z,990.7
2017-05-15T00:12:34.078Z,990.7
2017-05-15T00:13:36.436Z,990.6
2017-05-15T00:14:38.813Z,990.6
2017-05-15T00:15:41.167Z,990.6
2017-05-15T00:16:43.523Z,990.6
2017-05-15T00:17:45.855Z,990.6
2017-05-15T00:18:48.210Z,990.5
2017-05-15T00:19:50.582Z,990.6
2017-05-15T00:20:52.940Z,990.5
2017-05-15T00:21:55.287Z,990.5
2017-05-15T00:22:57.698Z,990.5
2017-05-15T00:24:00.343Z,990.6
2017-05-15T00:25:02.828Z,990.6
2017-05-15T00:26:05.214Z,990.6
2017-05-15T00:27:07.577Z,990.6
2017-05-15T00:28:09.923Z,990.6
2017-05-15T00:29:12.384Z,990.6
2017-05-15T00:30:14.778Z,990.3
2017-05-15T00:31:17.120Z,990.6
2017-05-15T00:32:19.504Z,990.6
2017-05-15T00:33:21.858Z,990.6
2017-05-15T00:34:24.206Z,990.2
2017-05-15T00:35:26.585Z,990.6
2017-05-15T00:36:28.955Z,990.6
2017-05-15T00:37:31.272Z,990.6
2017-05-15T00:38:33.649Z,990.6
2017-05-15T00:39:36.004Z,990.6
2017-05-15T00:40:38.362Z,990.7
2017-05-15T00:41:40.724Z,990.6
2017-05-15T00:42:43.084Z,990.6
2017-05-15T00:43:45.448Z,990.6
2017-05-15T00:44:47.760Z,990.6
2017-05-15T00:45:50.383Z,990.6
2017-05-15T00:46:52.771Z,990.6
2017-05-15T00:47:55.168Z,990.6
2017-05-15T00:48:57.529Z,990.6
2017-05-15T00:49:59.922Z,990.6
2017-05-15T00:51:02.319Z,990.6
2017-05-15T00:52:04.647Z,990.6
2017-05-15T00:53:07.017Z,990.7
2017-05-15T00:54:09.382Z,990.7
2017-05-15T00:55:11.774Z,990.7
2017-05-15T00:56:14.139Z,990.7
2017-05-15T00:57:16.461Z,990.7
2017-05-15T00:58:18.781Z,990.8
2017-05-15T00:59:21.849Z,990.7
2017-05-15T01:00:24.204Z,990.8
2017-05-15T01:01:26.734Z,990.7
2017-05-15T01:02:29.087Z,990.8
2017-05-15T01:03:31.503Z,990.8
2017-05-15T01:04:33.866Z,990.8
2017-05-15T01:05:36.204Z,990.8
2017-05-15T01:06:38.567Z,990.8
2017-05-15T01:07:41.647Z,990.8
2017-05-15T01:08:44.078Z,990.8
2017-05-15T01:09:46.881Z,990.8
2017-05-15T01:10:49.264Z,990.7
2017-05-15T01:11:51.644Z,990.8
2017-05-15T01:12:55.080Z,990.8
2017-05-15T01:13:57.463Z,990.8
2017-05-15T01:14:59.850Z,990.8
2017-05-15T01:16:02.215Z,990.7
2017-05-15T01:17:04.948Z,990.7
2017-05-15T01:18:07.382Z,990.7
2017-05-15T01:19:09.738Z,990.7
2017-05-15T01:20:12.069Z,990.8
2017-05-15T01:21:14.400Z,990.7
2017-05-15T01:22:16.805Z,990.7
2017-05-15T01:23:19.206Z,990.7
2017-05-15T01:24:21.542Z,990.8
2017-05-15T01:25:23.902Z,990.7
2017-05-15T01:26:26.280Z,990.8
2017-05-15T01:27:28.678Z,990.8
2017-05-15T01:28:31.065Z,990.8
2017-05-15T01:29:33.414Z,990.9
2017-05-15T01:30:35.726Z,990.8
2017-05-15T01:31:38.160Z,990.9
2017-05-15T01:32:40.879Z,990.9
2017-05-15T01:33:43.273Z,990.9
2017-05-15T01:34:45.649Z,990.9
2017-05-15T01:35:48.101Z,991
2017-05-15T01:36:50.428Z,990.6
2017-05-15T01:37:52.807Z,991
2017-05-15T01:38:55.264Z,991
2017-05-15T01:39:57.610Z,991
2017-05-15T01:40:59.954Z,991
2017-05-15T01:42:02.294Z,991
2017-05-15T01:43:04.734Z,991
2017-05-15T01:44:07.078Z,991
2017-05-15T01:45:09.436Z,991
2017-05-15T01:46:11.784Z,991
2017-05-15T01:47:14.127Z,991
2017-05-15T01:48:16.986Z,991
2017-05-15T01:49:19.330Z,991
2017-05-15T01:50:21.666Z,991
2017-05-15T01:51:24.078Z,991.1
2017-05-15T01:52:26.426Z,991.1
2017-05-15T01:53:28.811Z,991.1
2017-05-15T01:54:31.182Z,991.1
2017-05-15T01:55:33.592Z,991.1
2017-05-15T01:56:35.978Z,991.1
2017-05-15T01:57:38.328Z,991.1
2017-05-15T01:58:40.722Z,991.1
2017-05-15T01:59:43.088Z,991.2
2017-05-15T02:00:45.483Z,991.2
2017-05-15T02:01:47.792Z,991.2
2017-05-15T02:02:50.310Z,991.2
2017-05-15T02:03:52.705Z,991.2
2017-05-15T02:04:55.069Z,991.2
2017-05-15T02:05:57.439Z,991.2
2017-05-15T02:06:59.848Z,991.2
2017-05-15T02:08:02.251Z,991.2
2017-05-15T02:09:04.624Z,991.3
2017-05-15T02:10:06.999Z,991.3
2017-05-15T02:11:09.352Z,991.3
2017-05-15T02:12:11.763Z,991.3
2017-05-15T02:13:14.208Z,991.3
2017-05-15T02:14:16.578Z,991.3
2017-05-15T02:15:18.922Z,991.2
2017-05-15T02:16:21.293Z,991.3
2017-05-15T02:17:23.668Z,991.3
2017-05-15T02:18:26.048Z,991.3
2017-05-15T02:19:28.687Z,991.3
2017-05-15T02:20:34.715Z,990.8
2017-05-15T02:21:37.074Z,991.3
2017-05-15T02:22:39.445Z,991.3
2017-05-15T02:23:41.799Z,991.3
2017-05-15T02:24:44.160Z,991.3
2017-05-15T02:25:46.521Z,991.3
2017-05-15T02:26:48.931Z,991.4
2017-05-15T02:27:52.745Z,991.4
2017-05-15T02:28:55.101Z,991.4
2017-05-15T02:29:57.450Z,991.4
2017-05-15T02:30:59.832Z,991.5
2017-05-15T02:32:02.183Z,991.4
2017-05-15T02:33:04.672Z,991.4
2017-05-15T02:34:06.998Z,991.5
2017-05-15T02:35:09.394Z,991.5
2017-05-15T02:36:11.819Z,991.5
2017-05-15T02:37:14.163Z,991.5
2017-05-15T02:38:16.516Z,991.6
2017-05-15T02:39:18.844Z,991.6
2017-05-15T02:40:21.242Z,991.5
2017-05-15T02:41:23.741Z,991.5
2017-05-15T02:42:26.087Z,991.6
2017-05-15T02:43:28.476Z,991.6
2017-05-15T02:44:30.833Z,991.6
2017-05-15T02:45:33.211Z,991.6
2017-05-15T02:46:35.695Z,991.5
2017-05-15T02:47:38.043Z,991.6
2017-05-15T02:48:40.395Z,991.6
2017-05-15T02:49:42.762Z,991.6
2017-05-15T02:50:46.088Z,991.7
2017-05-15T02:51:48.459Z,991.7
2017-05-15T02:52:50.822Z,991.7
2017-05-15T02:53:53.204Z,991.7
2017-05-15T02:54:55.545Z,991.7
2017-05-15T02:55:57.901Z,991.7
2017-05-15T02:57:00.354Z,991.7
2017-05-15T02:58:02.852Z,991.7
2017-05-15T02:59:05.333Z,991.8
2017-05-15T03:00:07.655Z,991.7
2017-05-15T03:01:10.082Z,991.7
2017-05-15T03:02:12.410Z,991.7
2017-05-15T03:03:14.911Z,991.7
2017-05-15T03:04:17.331Z,991.7
2017-05-15T03:05:19.678Z,991.7
2017-05-15T03:06:22.096Z,991.7
2017-05-15T03:07:24.472Z,991.7
2017-05-15T03:08:26.820Z,991.7
2017-05-15T03:09:29.216Z,991.7
2017-05-15T03:10:31.568Z,991.7
2017-05-15T03:11:33.963Z,991.7
2017-05-15T03:12:36.337Z,991.7
2017-05-15T03:13:38.652Z,991.7
2017-05-15T03:14:41.003Z,991.8
2017-05-15T03:15:43.415Z,991.8
2017-05-15T03:16:45.863Z,991.8
2017-05-15T03:17:48.219Z,991.8
2017-05-15T03:18:50.692Z,991.8
2017-05-15T03:19:53.046Z,991.8
2017-05-15T03:20:55.425Z,991.5
2017-05-15T03:21:57.969Z,991.9
2017-05-15T03:23:00.336Z,991.9
2017-05-15T03:24:02.941Z,991.9
2017-05-15T03:25:05.372Z,991.9
2017-05-15T03:26:07.746Z,991.9
2017-05-15T03:27:10.132Z,991.9
2017-05-15T03:28:12.509Z,991.9
2017-05-15T03:29:14.875Z,991.9
2017-05-15T03:30:17.265Z,991.8
2017-05-15T03:31:19.648Z,991.9
2017-05-15T03:32:22.003Z,991.8
2017-05-15T03:33:24.395Z,991.9
2017-05-15T03:34:26.728Z,991.9
2017-05-15T03:35:29.128Z,991.9
2017-05-15T03:36:31.471Z,991.9
2017-05-15T03:37:33.839Z,991.9
2017-05-15T03:38:36.271Z,991.9
2017-05-15T03:39:38.668Z,991.9
2017-05-15T03:40:41.051Z,991.9
2017-05-15T03:41:43.392Z,992
2017-05-15T03:42:45.774Z,992
2017-05-15T03:43:48.180Z,992
2017-05-15T03:44:50.528Z,991.9
2017-05-15T03:45:52.890Z,992
2017-05-15T03:46:55.816Z,992
2017-05-15T03:47:58.198Z,992
2017-05-15T03:49:00.599Z,992
2017-05-15T03:50:02.921Z,992
2017-05-15T03:51:05.329Z,992
2017-05-15T03:52:07.693Z,992
2017-05-15T03:53:10.112Z,992
2017-05-15T03:54:12.437Z,992
2017-05-15T03:55:14.903Z,992.1
2017-05-15T03:56:17.293Z,992.1
2017-05-15T03:57:19.683Z,992.1
2017-05-15T03:58:22.044Z,992.1
2017-05-15T03:59:24.408Z,992.1
2017-05-15T04:00:26.779Z,992.1
2017-05-15T04:01:29.113Z,992.1
2017-05-15T04:02:31.700Z,992.1
2017-05-15T04:03:34.058Z,992.1
2017-05-15T04:04:36.572Z,992.1
2017-05-15T04:05:38.903Z,992.1
2017-05-15T04:06:41.344Z,992.1
2017-05-15T04:07:43.808Z,992.2
2017-05-15T04:08:46.206Z,992.2
2017-05-15T04:09:48.607Z,992.2
2017-05-15T04:10:50.966Z,992.2
2017-05-15T04:11:53.340Z,992.1
2017-05-15T04:12:55.734Z,992.2
2017-05-15T04:13:58.071Z,992.2
2017-05-15T04:15:00.462Z,992.2
2017-05-15T04:16:02.878Z,992.3
2017-05-15T04:17:05.269Z,992.2
2017-05-15T04:18:07.684Z,992.1
2017-05-15T04:19:10.147Z,992.3
2017-05-15T04:20:12.512Z,992.3
2017-05-15T04:21:14.938Z,992.3
2017-05-15T04:22:17.270Z,992.3
2017-05-15T04:23:19.635Z,992.3
2017-05-15T04:24:22.038Z,992.3
2017-05-15T04:25:24.347Z,992.4
2017-05-15T04:26:26.884Z,992.3
2017-05-15T04:27:29.272Z,992.4
2017-05-15T04:28:31.645Z,992.4
2017-05-15T04:29:33.998Z,992
2017-05-15T04:30:36.488Z,992.4
2017-05-15T04:31:38.889Z,992.4
2017-05-15T04:33:52.585Z,992.4
2017-05-15T04:34:54.923Z,992.4
2017-05-15T04:35:57.432Z,992.4
2017-05-15T04:36:59.875Z,992.4
2017-05-15T04:38:02.200Z,992.5
2017-05-15T04:39:04.542Z,992.5
2017-05-15T04:40:07.011Z,992.5
2017-05-15T04:41:09.429Z,992.5
2017-05-15T04:42:11.745Z,992.4
2017-05-15T04:43:14.147Z,992.5
2017-05-15T04:44:16.531Z,992.4
2017-05-15T04:45:18.887Z,992.5
2017-05-15T04:46:21.555Z,992.4
2017-05-15T04:47:23.923Z,992.5
2017-05-15T04:48:26.298Z,992.5
2017-05-15T04:49:28.714Z,992.5
2017-05-15T04:50:31.130Z,992.5
2017-05-15T04:51:33.509Z,992.5
2017-05-15T04:52:36.024Z,992.6
2017-05-15T04:53:38.403Z,992.6
2017-05-15T04:54:40.779Z,992.6
2017-05-15T04:55:43.145Z,992.5
2017-05-15T04:56:45.634Z,992.6
2017-05-15T04:57:48.051Z,992.5
2017-05-15T04:58:50.514Z,992.6
2017-05-15T04:59:52.868Z,992.6
2017-05-15T05:00:55.240Z,992.6
2017-05-15T05:01:57.665Z,992.6
2017-05-15T05:03:00.027Z,992.6
2017-05-15T05:04:02.563Z,992.4
2017-05-15T05:05:04.933Z,992.7
2017-05-15T05:06:07.634Z,992.6
2017-05-15T05:07:10.049Z,992.7
2017-05-15T05:08:12.420Z,992.4
2017-05-15T05:09:15.614Z,992.7
2017-05-15T05:10:18.050Z,992.8
2017-05-15T05:11:20.457Z,992.8
2017-05-15T05:12:22.931Z,992.8
2017-05-15T05:13:25.388Z,992.8
2017-05-15T05:14:27.886Z,992.8
2017-05-15T05:15:30.268Z,992.8
2017-05-15T05:16:32.995Z,992.8
2017-05-15T05:17:35.479Z,992.8
2017-05-15T05:18:38.768Z,992.9
2017-05-15T05:19:41.151Z,992.9
2017-05-15T05:20:43.601Z,992.9
2017-05-15T05:21:46.051Z,992.8
2017-05-15T05:22:48.762Z,992.8
2017-05-15T05:23:51.093Z,992.9
2017-05-15T05:24:53.455Z,992.9
2017-05-15T05:25:55.990Z,992.9
2017-05-15T05:26:58.398Z,992.9
2017-05-15T05:28:00.812Z,993
2017-05-15T05:29:03.203Z,993
2017-05-15T05:30:05.666Z,993
2017-05-15T05:31:08.256Z,993
2017-05-15T05:32:10.738Z,993.1
2017-05-15T05:33:14.740Z,993.1
2017-05-15T05:34:17.293Z,993.1
2017-05-15T05:35:19.711Z,993.1
2017-05-15T05:36:22.059Z,993.1
2017-05-15T05:37:24.612Z,993.1
2017-05-15T05:38:27.043Z,993.1
2017-05-15T05:39:29.438Z,993.1
2017-05-15T05:40:31.818Z,993.1
2017-05-15T05:41:34.196Z,993.1
2017-05-15T05:42:37.363Z,993.1
2017-05-15T05:43:39.808Z,993.1
2017-05-15T05:44:42.531Z,993.2
2017-05-15T05:45:45.022Z,993.1
2017-05-15T05:46:47.475Z,993.2
2017-05-15T05:47:49.989Z,993.2
2017-05-15T05:48:52.414Z,993.2
2017-05-15T05:49:54.822Z,993.2
2017-05-15T05:50:57.517Z,993.2
2017-05-15T05:51:59.867Z,993
2017-05-15T05:53:02.593Z,993.2
2017-05-15T05:54:04.966Z,993.3
2017-05-15T05:55:07.372Z,993.2
2017-05-15T05:56:09.822Z,993.3
2017-05-15T05:57:12.187Z,993.3
2017-05-15T05:58:15.144Z,993.3
2017-05-15T05:59:17.572Z,993.4
2017-05-15T06:00:19.984Z,993.5
2017-05-15T06:01:22.328Z,993.4
2017-05-15T06:02:24.708Z,993.5
2017-05-15T06:03:27.097Z,993.5
2017-05-15T06:04:29.500Z,993.2
2017-05-15T06:05:31.891Z,993.5
2017-05-15T06:06:34.249Z,993.5
2017-05-15T06:07:36.663Z,993.5
2017-05-15T06:08:39.000Z,993.5
2017-05-15T06:09:41.370Z,993.6
2017-05-15T06:10:43.793Z,993.5
2017-05-15T06:11:46.242Z,993.6
2017-05-15T06:12:48.670Z,993.6
2017-05-15T06:13:51.853Z,993.7
2017-05-15T06:14:54.228Z,993.6
2017-05-15T06:15:56.807Z,993.6
2017-05-15T06:16:59.214Z,993.7
2017-05-15T06:18:01.619Z,993.4
2017-05-15T06:19:03.986Z,993.6
2017-05-15T06:20:06.502Z,993.6
2017-05-15T06:21:08.874Z,993.6
2017-05-15T06:22:11.273Z,993.3
2017-05-15T06:23:18.009Z,993.6
2017-05-15T06:24:20.504Z,993.7
2017-05-15T06:25:22.920Z,993.4
2017-05-15T06:26:25.605Z,993.7
2017-05-15T06:27:28.740Z,993.7
2017-05-15T06:28:31.214Z,993.7
2017-05-15T06:29:33.598Z,993.7
2017-05-15T06:30:36.070Z,993.8
2017-05-15T06:31:38.471Z,993.8
2017-05-15T06:32:40.899Z,993.8
2017-05-15T06:33:43.257Z,993.6
2017-05-15T06:34:45.661Z,993.8
2017-05-15T06:35:48.058Z,993.8
2017-05-15T06:36:50.591Z,993.9
2017-05-15T06:37:52.971Z,993.9
2017-05-15T06:38:55.425Z,993.9
2017-05-15T06:39:57.881Z,993.9
2017-05-15T06:41:00.239Z,993.9
2017-05-15T06:42:02.713Z,993.8
2017-05-15T06:43:05.851Z,993.9
2017-05-15T06:44:08.216Z,993.8
2017-05-15T06:45:10.628Z,993.9
2017-05-15T06:46:13.020Z,993.7
2017-05-15T06:47:15.436Z,994
2017-05-15T06:48:18.417Z,994
2017-05-15T06:49:20.852Z,994
2017-05-15T06:50:23.199Z,994
2017-05-15T06:51:25.624Z,993.8
2017-05-15T06:52:28.054Z,994
2017-05-15T06:53:30.448Z,994
2017-05-15T06:54:32.796Z,994
2017-05-15T06:55:35.163Z,994
2017-05-15T06:56:37.667Z,993.8
2017-05-15T06:57:40.094Z,994.1
2017-05-15T06:58:42.474Z,994.1
2017-05-15T06:59:44.894Z,994
2017-05-15T07:00:47.870Z,994.1
2017-05-15T07:01:50.239Z,994.1
2017-05-15T07:02:52.570Z,994.1
2017-05-15T07:03:55.031Z,994.2
2017-05-15T07:04:57.481Z,994.1
2017-05-15T07:05:59.860Z,994.1
2017-05-15T07:07:02.261Z,994.1
2017-05-15T07:08:04.699Z,994.2
2017-05-15T07:09:07.088Z,994.2
2017-05-15T07:10:09.548Z,994.2
2017-05-15T07:11:11.999Z,994.2
2017-05-15T07:12:14.353Z,994.2
2017-05-15T07:13:16.828Z,994.2
2017-05-15T07:14:19.235Z,994.2
2017-05-15T07:15:21.648Z,994.2
2017-05-15T07:16:24.043Z,994.2
2017-05-15T07:17:26.508Z,994
2017-05-15T07:18:28.985Z,994.3
2017-05-15T07:19:31.352Z,994.2
2017-05-15T07:20:33.745Z,994.2
2017-05-15T07:21:36.110Z,994.3
2017-05-15T07:22:43.367Z,994.3
2017-05-15T07:23:45.818Z,994.3
2017-05-15T07:24:48.560Z,994.1
2017-05-15T07:25:50.938Z,994.3
2017-05-15T07:26:53.941Z,994.3
2017-05-15T07:27:56.479Z,994.3
2017-05-15T07:28:58.837Z,994.4
2017-05-15T07:30:01.290Z,994.4
2017-05-15T07:31:03.661Z,994.1
2017-05-15T07:32:06.076Z,994.3
2017-05-15T07:33:08.505Z,994.4
2017-05-15T07:34:10.912Z,994.4
2017-05-15T07:35:13.317Z,994.4
2017-05-15T07:36:15.768Z,994.4
2017-05-15T07:37:18.349Z,994.4
2017-05-15T07:38:20.778Z,994.4
2017-05-15T07:39:23.136Z,994.4
2017-05-15T07:40:25.521Z,994.4
2017-05-15T07:41:28.011Z,994.4
2017-05-15T07:42:30.502Z,994.4
2017-05-15T07:43:33.061Z,994.4
2017-05-15T07:44:35.423Z,994.4
2017-05-15T07:45:37.921Z,994.4
2017-05-15T07:46:40.304Z,994.2
2017-05-15T07:47:42.786Z,994.4
2017-05-15T07:48:45.169Z,994.4
2017-05-15T07:49:47.676Z,994.5
2017-05-15T07:50:50.041Z,994.4
2017-05-15T07:51:52.505Z,994.4
2017-05-15T07:52:54.916Z,994.5
2017-05-15T07:53:57.437Z,994.2
2017-05-15T07:55:08.750Z,994.4
2017-05-15T07:56:11.170Z,994.4
2017-05-15T07:57:13.598Z,994.4
2017-05-15T07:58:15.960Z,994.2
2017-05-15T07:59:18.466Z,994.1
2017-05-15T08:00:20.895Z,994.4
2017-05-15T08:01:24.907Z,994.3
2017-05-15T08:02:27.415Z,994.3
2017-05-15T08:03:29.832Z,994.3
2017-05-15T08:04:32.297Z,994.4
2017-05-15T08:05:34.676Z,994.3
2017-05-15T08:06:37.606Z,994.3
2017-05-15T08:07:39.997Z,994.4
2017-05-15T08:08:42.524Z,994.1
2017-05-15T08:09:44.882Z,994.3
2017-05-15T08:10:47.446Z,994.1
2017-05-15T08:11:49.890Z,994.3
2017-05-15T08:12:54.158Z,994.3
2017-05-15T08:13:57.609Z,994.4
2017-05-15T08:15:00.031Z,994.4
2017-05-15T08:16:02.542Z,994.3
2017-05-15T08:17:04.950Z,994.3
2017-05-15T08:18:07.469Z,994.1
2017-05-15T08:19:10.860Z,994.3
2017-05-15T08:20:13.274Z,994.3
2017-05-15T08:21:15.779Z,994.4
2017-05-15T08:22:18.332Z,994.4
2017-05-15T08:23:20.967Z,994.4
2017-05-15T08:24:23.425Z,994.4
2017-05-15T08:25:26.111Z,994.4
2017-05-15T08:26:28.724Z,994.4
2017-05-15T08:27:31.193Z,994.5
2017-05-15T08:28:33.606Z,994.5
2017-05-15T08:29:36.035Z,994.6
2017-05-15T08:30:39.566Z,994.5
2017-05-15T08:31:42.025Z,994.5
2017-05-15T08:32:44.493Z,994.6
2017-05-15T08:33:46.973Z,994.6
2017-05-15T08:34:49.428Z,994.6
2017-05-15T08:35:51.842Z,994.6
2017-05-15T08:36:55.220Z,994.5
2017-05-15T08:37:57.713Z,994.6
2017-05-15T08:39:00.166Z,994.4
2017-05-15T08:40:02.758Z,994.5
2017-05-15T08:41:05.184Z,994.3
2017-05-15T08:42:07.675Z,994.5
2017-05-15T08:43:10.128Z,994.3
2017-05-15T08:44:12.546Z,994.6
2017-05-15T08:45:15.003Z,994.5
2017-05-15T08:46:17.477Z,994.3
2017-05-15T08:47:19.887Z,994.5
2017-05-15T08:48:22.308Z,994.5
2017-05-15T08:49:24.827Z,994.2
2017-05-15T08:50:27.439Z,994.5
2017-05-15T08:51:29.884Z,994.4
2017-05-15T08:52:32.302Z,994.4
2017-05-15T08:53:34.731Z,994.3
2017-05-15T08:54:37.511Z,994.4
2017-05-15T08:55:39.968Z,994.4
2017-05-15T08:56:42.338Z,994.4
2017-05-15T08:57:44.786Z,994.5
2017-05-15T08:58:47.347Z,994.5
2017-05-15T08:59:49.772Z,994.5
2017-05-15T09:00:52.200Z,994.5
2017-05-15T09:01:54.636Z,994.5
2017-05-15T09:02:57.186Z,994.2
2017-05-15T09:03:59.588Z,994.5
2017-05-15T09:05:01.996Z,994.4
2017-05-15T09:06:04.419Z,994.3
2017-05-15T09:07:06.825Z,994.3
2017-05-15T09:08:09.271Z,994.2
2017-05-15T09:09:11.657Z,994.2
2017-05-15T09:10:14.064Z,994.2
2017-05-15T09:11:16.466Z,994.2
2017-05-15T09:12:18.949Z,994.2
2017-05-15T09:13:21.380Z,994.2
2017-05-15T09:14:23.733Z,994.2
2017-05-15T09:15:26.104Z,994.2
2017-05-15T09:16:28.623Z,994.2
2017-05-15T09:17:31.621Z,994.2
2017-05-15T09:18:34.211Z,994.2
2017-05-15T09:19:36.591Z,994.2
2017-05-15T09:20:39.076Z,993.9
2017-05-15T09:21:41.518Z,994.2
2017-05-15T09:22:43.899Z,994.2
2017-05-15T09:23:46.281Z,994.2
2017-05-15T09:24:48.794Z,994.3
2017-05-15T09:25:51.290Z,994.2
2017-05-15T09:26:53.690Z,994.1
2017-05-15T09:27:56.064Z,994.1
2017-05-15T09:28:58.570Z,994.1
2017-05-15T09:30:00.947Z,993.9
2017-05-15T09:31:03.525Z,994.1
2017-05-15T09:32:05.945Z,994.2
2017-05-15T09:33:08.637Z,994.1
2017-05-15T09:34:15.297Z,994.1
2017-05-15T09:35:17.958Z,994.1
2017-05-15T09:36:20.412Z,994.1
2017-05-15T09:37:22.864Z,994.1
2017-05-15T09:38:26.297Z,994.2
2017-05-15T09:39:28.873Z,994.1
2017-05-15T09:40:31.353Z,994.1
2017-05-15T09:41:33.758Z,994.2
2017-05-15T09:42:36.204Z,993.9
2017-05-15T09:43:38.680Z,994.2
2017-05-15T09:44:41.154Z,994.2
2017-05-15T09:45:44.161Z,994.2
2017-05-15T09:46:46.527Z,994.2
2017-05-15T09:47:49.042Z,994
2017-05-15T09:48:52.348Z,994.2
2017-05-15T09:49:54.810Z,994.2
2017-05-15T09:50:57.388Z,994.2
2017-05-15T09:53:26.716Z,994.1
2017-05-15T09:54:46.496Z,994.2
2017-05-15T09:58:50.362Z,994.2
2017-05-15T10:00:04.489Z,994.3
2017-05-15T10:01:14.520Z,994.4
2017-05-15T10:03:47.388Z,994.4
2017-05-15T10:04:54.820Z,994.3
2017-05-15T10:05:59.081Z,994.3
2017-05-15T10:07:07.496Z,994.3
2017-05-15T10:08:10.444Z,994.3
2017-05-15T10:09:13.824Z,994.1
2017-05-15T10:10:16.393Z,994.2
2017-05-15T10:11:21.817Z,994.2
2017-05-15T10:12:28.939Z,994.3
2017-05-15T10:13:34.963Z,994.3
2017-05-15T10:14:43.340Z,994.4
2017-05-15T10:15:49.824Z,994.4
2017-05-15T10:16:58.051Z,994.4
2017-05-15T10:18:01.308Z,994.4
2017-05-15T10:19:06.437Z,994.3
2017-05-15T10:20:09.575Z,994.3
2017-05-15T10:21:13.986Z,994.5
2017-05-15T10:22:22.016Z,994.3
2017-05-15T10:23:30.135Z,994.5
2017-05-15T10:24:33.232Z,994.4
2017-05-15T10:25:36.213Z,994.4
2017-05-15T10:26:49.070Z,994.5
2017-05-15T10:27:52.577Z,994.1
2017-05-15T10:29:01.073Z,994.5
2017-05-15T10:30:14.701Z,994.2
2017-05-15T10:31:20.693Z,994.2
2017-05-15T10:32:24.933Z,994.5
2017-05-15T10:33:31.100Z,994.5
2017-05-15T10:37:18.040Z,994.4
2017-05-15T10:38:29.139Z,994.3
2017-05-15T10:40:04.360Z,994.3
2017-05-15T10:41:07.137Z,994.3
2017-05-15T10:42:16.857Z,994.1
2017-05-15T10:43:20.565Z,994.1
2017-05-15T10:44:23.214Z,994.3
2017-05-15T10:46:01.173Z,994.2
2017-05-15T10:47:10.395Z,994.1
2017-05-15T10:48:26.488Z,994.3
2017-05-15T10:49:32.334Z,994.2
2017-05-15T10:50:35.886Z,994.4
2017-05-15T10:51:49.808Z,994.3
2017-05-15T10:55:35.607Z,994.3
2017-05-15T10:56:38.064Z,994.3
2017-05-15T10:57:40.576Z,994.1
2017-05-15T10:58:43.169Z,994.1
2017-05-15T10:59:48.239Z,994.3
2017-05-15T11:01:02.106Z,994.3
2017-05-15T11:03:14.033Z,994.2
2017-05-15T11:04:22.661Z,994.3
2017-05-15T11:05:25.445Z,994.1
2017-05-15T11:06:36.592Z,994.1
2017-05-15T11:07:53.009Z,994.3
2017-05-15T11:08:59.752Z,994.3
2017-05-15T11:10:03.487Z,994.3
2017-05-15T11:11:06.286Z,994.2
2017-05-15T11:13:48.663Z,994.2
2017-05-15T11:14:51.230Z,994.2
2017-05-15T11:15:53.646Z,994.2
2017-05-15T11:16:56.125Z,994.2
2017-05-15T11:17:58.686Z,994.3
2017-05-15T11:19:01.078Z,994.2
2017-05-15T11:20:03.496Z,994.3
2017-05-15T11:21:05.951Z,994.3
2017-05-15T11:22:08.438Z,994.2
2017-05-15T11:23:10.900Z,994.2
2017-05-15T11:24:13.501Z,994.2
2017-05-15T11:25:16.733Z,994.3
2017-05-15T11:26:19.739Z,994.2
2017-05-15T11:27:22.827Z,994.2
2017-05-15T11:28:25.752Z,994
2017-05-15T11:29:29.773Z,994.2
2017-05-15T11:30:33.359Z,994.2
2017-05-15T11:31:41.313Z,994.2
2017-05-15T11:32:50.271Z,994.2
2017-05-15T11:33:52.787Z,994.1
2017-05-15T11:34:55.286Z,994.2
2017-05-15T11:35:57.840Z,993.9
2017-05-15T11:37:01.764Z,994.2
2017-05-15T11:38:04.360Z,994.1
2017-05-15T11:39:06.967Z,993.9
2017-05-15T11:40:10.648Z,994.1
2017-05-15T11:41:17.204Z,993.9
2017-05-15T11:42:23.889Z,994.1
2017-05-15T11:43:29.637Z,994.1
2017-05-15T11:44:47.057Z,994.1
2017-05-15T11:45:52.712Z,993.9
2017-05-15T11:47:17.037Z,994.1
2017-05-15T11:48:19.647Z,994.1
2017-05-15T11:49:22.118Z,993.9
2017-05-15T11:50:24.724Z,994.2
2017-05-15T11:51:27.172Z,994.2
2017-05-15T11:52:31.100Z,993.8
2017-05-15T11:53:34.014Z,994
2017-05-15T11:54:37.583Z,994
2017-05-15T11:55:42.366Z,993.8
2017-05-15T11:56:51.023Z,994
2017-05-15T11:59:17.713Z,994.1
2017-05-15T12:00:20.260Z,994.1
2017-05-15T12:01:22.788Z,993.8
2017-05-15T12:02:29.729Z,994
2017-05-15T12:03:33.218Z,993.9
2017-05-15T12:04:38.145Z,994.1
2017-05-15T12:12:53.342Z,994
2017-05-15T12:13:56.486Z,994
2017-05-15T12:15:16.628Z,993.7
2017-05-15T12:16:19.142Z,994
2017-05-15T12:17:21.536Z,993.9
2017-05-15T12:18:25.469Z,993.9
2017-05-15T12:19:28.572Z,993.9
2017-05-15T12:20:35.443Z,993.6
2017-05-15T12:21:57.386Z,993.9
2017-05-15T12:23:10.182Z,993.7
2017-05-15T12:24:18.926Z,993.9
2017-05-15T12:25:21.714Z,993.9
2017-05-15T12:26:24.359Z,994
2017-05-15T12:27:27.020Z,994
2017-05-15T12:28:30.944Z,993.9
2017-05-15T12:29:38.651Z,993.8
2017-05-15T12:30:55.123Z,993.7
2017-05-15T12:33:13.168Z,993.9
2017-05-15T12:34:19.030Z,993.7
2017-05-15T12:35:21.576Z,993.9
2017-05-15T12:36:24.055Z,993.9
2017-05-15T12:37:27.097Z,993.9
2017-05-15T12:38:29.963Z,993.7
2017-05-15T12:39:33.019Z,993.5
2017-05-15T12:40:35.983Z,993.9
2017-05-15T12:41:39.462Z,993.8
2017-05-15T12:42:42.985Z,993.8
2017-05-15T12:43:52.753Z,993.6
2017-05-15T12:46:16.731Z,993.6
2017-05-15T12:47:19.303Z,993.8
2017-05-15T12:48:22.053Z,993.6
2017-05-15T12:49:24.558Z,993.8
2017-05-15T12:52:33.341Z,993.9
2017-05-15T12:53:35.840Z,993.8
2017-05-15T12:54:38.594Z,993.8
2017-05-15T12:55:41.119Z,993.8
2017-05-15T12:56:43.683Z,993.7
2017-05-15T12:57:46.157Z,993.9
2017-05-15T12:58:49.556Z,993.8
2017-05-15T12:59:56.996Z,993.8
2017-05-15T13:00:59.597Z,993.6
2017-05-15T13:02:02.218Z,993.9
2017-05-15T13:03:14.969Z,993.8
2017-05-15T13:04:17.486Z,993.8
2017-05-15T13:14:06.699Z,993.8
2017-05-15T13:15:13.977Z,993.6
2017-05-15T13:16:16.375Z,993.8
2017-05-15T13:17:19.120Z,993.9
2017-05-15T13:18:21.575Z,993.6
2017-05-15T13:19:23.987Z,993.7
2017-05-15T13:20:26.600Z,993.9
2017-05-15T13:21:29.774Z,993.7
2017-05-15T13:22:33.149Z,993.6
2017-05-15T13:23:35.936Z,993.9
2017-05-15T13:24:53.017Z,993.8
2017-05-15T13:26:03.382Z,993.5
2017-05-15T13:27:06.032Z,993.8
2017-05-15T13:28:08.577Z,993.7
2017-05-15T13:29:11.022Z,993.7
2017-05-15T13:30:14.061Z,993.7
2017-05-15T13:31:16.522Z,993.7
2017-05-15T13:32:18.986Z,993.7
2017-05-15T13:33:22.206Z,993.7
2017-05-15T13:34:29.096Z,993.7
2017-05-15T13:35:33.784Z,993.3
2017-05-15T13:38:00.825Z,993.7
2017-05-15T13:40:11.259Z,993.7
2017-05-15T13:41:15.732Z,993.7
2017-05-15T13:42:18.940Z,993.8
2017-05-15T13:43:21.940Z,993.8
2017-05-15T13:44:24.419Z,993.8
2017-05-15T13:45:26.881Z,993.8
2017-05-15T13:46:29.520Z,993.2
2017-05-15T13:48:53.574Z,993.8
2017-05-15T13:50:04.164Z,993.8
2017-05-15T13:52:53.863Z,993.7
2017-05-15T13:53:59.850Z,993.7
2017-05-15T13:55:02.464Z,993.6
2017-05-15T13:56:06.272Z,993.6
2017-05-15T13:57:09.048Z,993.6
2017-05-15T13:58:11.857Z,993.4
2017-05-15T13:59:14.457Z,993.6
2017-05-15T14:00:16.876Z,993.6
2017-05-15T14:01:19.810Z,993.6
2017-05-15T14:02:22.781Z,993.4
2017-05-15T14:03:27.321Z,993.3
2017-05-15T14:04:34.363Z,993.1
2017-05-15T14:05:43.362Z,993.4
2017-05-15T14:06:46.309Z,993.5
2017-05-15T14:07:50.515Z,993.6
2017-05-15T14:09:00.154Z,993.3
2017-05-15T14:10:02.950Z,993.5
2017-05-15T14:11:06.808Z,993.5
2017-05-15T14:12:14.436Z,993.3
2017-05-15T14:13:17.640Z,993.3
2017-05-15T14:14:33.617Z,993.3
2017-05-15T14:15:57.442Z,993.6
2017-05-15T14:17:08.042Z,993.7
2017-05-15T14:19:35.646Z,993.6
2017-05-15T14:20:38.283Z,993.6
2017-05-15T14:21:41.486Z,993.5
2017-05-15T14:25:16.281Z,993.5
2017-05-15T14:27:53.885Z,993.2